Hauptseite
METAR-TAF:

METAR-TAF

Flughäfen :

Altenstadt, Deutschland

Heeresflugplatz Altenstadt

Breite: 47-50N, Länge: 010-52E, Höhe: 739 m

Beobachtung

Neuester Wetterbericht von vor 23 Minuten, um 13:20 UTC
Temperatur -3°C
Luftfeuchtigkeit 63%
Luftdruck 1014 hPa

METAR: ETHA 241320Z //////////// ////// M03/M09 Q1014 W:ColourState

Zeit: 14:43 (13:43 UTC)

Prognose

Neuester Wetterbericht von vor 27 Stunden und 22 Minuten, um 10:21 UTC
Gültige Prognose vom 23 um 09 UTC bis 23 um 18 UTC
Wind 10 kt aus Ost/Nordost, Böen bis zu 20 kt
Sichtweite: 4000 m
Geschlossene Wolkendecke in der Höhe von 500 ft
feuchter Dunst
Zeitweise
vom 23 um 12 UTC bis 23 um 16 UTC
Wind 12 kt aus Ost, Böen bis zu 22 kt
Sichtweite: 1120 m
Aufgelockert bewölkt in der Höhe von 700 ft
Geschlossene Wolkendecke in der Höhe von 1000 ft

TAF: ETHA 231021Z 2309/2318 07010G20KT 4000 BR OVC005 TEMPO 2312/2316 08012G22KT 6000 NSW SCT007 OVC010 CANCEL 1120

Wetterbeobachtungen und Prognosen von mehr als 4000 Flughäfen (METAR und TAF Bericht).

Die verfügbaren Stationen werden durch gelbe und rote Markierungen auf der Karte dargestellt.

Führen Sie die Maus auf sie, um den Namen der Station zu sehen.

Darauf klicken, um die Beobachtung von Wetterbeobachtungen und Prognosen zu sehen.

Um die Karte zu ändern : klicken Sie auf den grünen Tasten mit einem schwarzen Kreuz Zum Vergrößern, auf den grünen Button mit einem Gedankenstrich zu verkleinern, oder auf die grünen Pfeile für benachbarte Karten.


METAR-TAF: